createdAt,value
2022-09-22T00:02:05.861Z,2.00
2022-09-22T00:05:08.383Z,1.58
2022-09-22T00:08:10.287Z,2.88
2022-09-22T00:11:20.266Z,1.95
2022-09-22T00:14:25.265Z,2.40
2022-09-22T00:17:27.133Z,2.10
2022-09-22T00:20:29.177Z,2.00
2022-09-22T00:23:32.009Z,1.90
2022-09-22T00:26:35.765Z,2.55
2022-09-22T00:29:37.710Z,2.17
2022-09-22T00:32:40.394Z,1.45
2022-09-22T00:35:42.385Z,2.00
2022-09-22T00:38:44.642Z,1.65
2022-09-22T00:41:49.446Z,1.80
2022-09-22T00:44:51.543Z,2.00
2022-09-22T00:47:53.583Z,2.88
2022-09-22T00:50:58.329Z,1.88
2022-09-22T00:54:04.672Z,2.15
2022-09-22T00:57:18.761Z,1.90
2022-09-22T01:00:21.334Z,1.90
2022-09-22T01:03:29.812Z,2.47
2022-09-22T01:06:32.305Z,2.33
2022-09-22T01:09:34.897Z,2.13
2022-09-22T01:12:37.822Z,1.75
2022-09-22T01:15:51.213Z,1.95
2022-09-22T01:19:28.316Z,1.25
2022-09-22T01:22:55.915Z,1.67
2022-09-22T01:26:16.553Z,1.63
2022-09-22T01:29:33.432Z,1.67
2022-09-22T01:32:49.994Z,1.52
2022-09-22T01:36:33.250Z,1.70
2022-09-22T01:39:44.609Z,1.83
2022-09-22T01:42:57.537Z,2.00
2022-09-22T01:46:03.270Z,1.38
2022-09-22T01:49:13.629Z,1.70
2022-09-22T01:52:22.617Z,1.95
2022-09-22T01:55:32.765Z,1.70
2022-09-22T01:58:41.050Z,2.15
2022-09-22T02:02:02.814Z,1.58
2022-09-22T02:05:18.594Z,1.73
2022-09-22T02:08:30.133Z,1.42
2022-09-22T02:11:32.113Z,2.15
2022-09-22T02:14:34.458Z,1.90
2022-09-22T02:17:36.601Z,1.90
2022-09-22T02:20:39.278Z,2.10
2022-09-22T02:23:42.745Z,1.58
2022-09-22T02:26:44.726Z,1.50
2022-09-22T02:29:52.789Z,1.98
2022-09-22T02:32:56.474Z,1.67
2022-09-22T02:36:17.292Z,1.73
2022-09-22T02:39:43.964Z,1.92
2022-09-22T02:43:23.283Z,1.88
2022-09-22T02:46:38.674Z,1.90
2022-09-22T02:49:43.992Z,1.98
2022-09-22T02:52:45.906Z,1.45
2022-09-22T02:55:48.434Z,2.28
2022-09-22T02:58:51.626Z,2.10
2022-09-22T03:01:56.045Z,2.03
2022-09-22T03:04:58.078Z,2.67
2022-09-22T03:08:00.118Z,2.13
2022-09-22T03:11:02.267Z,1.48
2022-09-22T03:14:04.291Z,2.25
2022-09-22T03:17:06.204Z,1.67
2022-09-22T03:20:11.731Z,1.65
2022-09-22T03:23:13.656Z,2.45
2022-09-22T03:26:15.655Z,2.05
2022-09-22T03:29:17.537Z,2.95
2022-09-22T03:32:19.479Z,2.67
2022-09-22T03:35:21.477Z,2.90
2022-09-22T03:38:23.681Z,2.70
2022-09-22T03:41:26.261Z,3.05
2022-09-22T03:44:28.200Z,2.80
2022-09-22T03:47:30.799Z,2.15
2022-09-22T03:50:32.698Z,2.72
2022-09-22T03:53:35.585Z,2.38
2022-09-22T03:56:38.559Z,2.67
2022-09-22T03:59:40.547Z,2.70
2022-09-22T04:02:42.733Z,3.10
2022-09-22T04:05:51.789Z,2.53
2022-09-22T04:08:53.755Z,2.63
2022-09-22T04:11:55.880Z,2.90
2022-09-22T04:14:57.847Z,2.47
2022-09-22T04:17:59.773Z,3.35
2022-09-22T04:21:01.694Z,2.97
2022-09-22T04:24:04.331Z,3.17
2022-09-22T04:27:19.529Z,2.90
2022-09-22T04:30:22.180Z,2.42
2022-09-22T04:33:24.793Z,2.83
2022-09-22T04:36:26.838Z,3.60
2022-09-22T04:39:29.096Z,2.97
2022-09-22T04:42:31.048Z,3.67
2022-09-22T04:45:37.366Z,3.00
2022-09-22T04:48:41.410Z,2.20
2022-09-22T04:51:43.398Z,2.80
2022-09-22T04:54:45.332Z,3.22
2022-09-22T04:57:48.700Z,3.08
2022-09-22T05:00:50.886Z,2.55
2022-09-22T05:03:53.581Z,2.65
2022-09-22T05:06:55.586Z,3.00
2022-09-22T05:09:57.658Z,2.83
2022-09-22T05:13:00.211Z,2.58
2022-09-22T05:16:03.164Z,2.40
2022-09-22T05:19:05.137Z,2.65
2022-09-22T05:22:07.152Z,2.42
2022-09-22T05:25:11.689Z,2.38
2022-09-22T05:28:13.689Z,3.22
2022-09-22T05:31:15.662Z,2.38
2022-09-22T05:34:17.773Z,3.22
2022-09-22T05:37:19.849Z,2.92
2022-09-22T05:40:24.232Z,2.53
2022-09-22T05:43:26.209Z,2.72
2022-09-22T05:46:28.916Z,2.47
2022-09-22T05:49:30.994Z,2.58
2022-09-22T05:52:33.394Z,3.42
2022-09-22T05:55:35.876Z,2.50
2022-09-22T05:58:37.845Z,1.92
2022-09-22T06:01:39.985Z,2.17
2022-09-22T06:04:41.920Z,1.40
2022-09-22T06:07:43.997Z,2.00
2022-09-22T06:10:45.909Z,1.90
2022-09-22T06:13:51.197Z,2.00
2022-09-22T06:16:53.551Z,2.08
2022-09-22T06:19:55.547Z,1.50
2022-09-22T06:22:57.486Z,1.23
2022-09-22T06:25:59.741Z,1.20
2022-09-22T06:29:01.720Z,1.60
2022-09-22T06:32:07.567Z,1.83
2022-09-22T06:35:11.526Z,1.88
2022-09-22T06:38:17.585Z,1.52
2022-09-22T06:41:19.759Z,2.00
2022-09-22T06:44:22.032Z,1.70
2022-09-22T06:47:24.106Z,1.80
2022-09-22T06:50:31.173Z,1.77
2022-09-22T06:53:33.267Z,1.85
2022-09-22T06:56:42.750Z,1.80
2022-09-22T06:59:45.727Z,1.67
2022-09-22T07:02:48.006Z,2.00
2022-09-22T07:06:01.296Z,1.80
2022-09-22T07:09:05.604Z,1.90
2022-09-22T07:12:07.853Z,2.80
2022-09-22T07:15:10.554Z,1.58
2022-09-22T07:18:12.509Z,2.10
2022-09-22T07:21:17.153Z,1.98
2022-09-22T07:24:19.134Z,1.98
2022-09-22T07:27:21.070Z,1.60
2022-09-22T07:30:23.077Z,2.10
2022-09-22T07:33:26.073Z,1.63
2022-09-22T07:36:30.654Z,2.53
2022-09-22T07:39:32.595Z,2.20
2022-09-22T07:42:34.608Z,2.42
2022-09-22T07:45:36.572Z,2.13
2022-09-22T07:48:46.988Z,2.00
2022-09-22T07:51:49.893Z,2.10
2022-09-22T07:54:51.880Z,1.98
2022-09-22T07:57:58.304Z,1.55
2022-09-22T08:01:08.408Z,1.50
2022-09-22T08:04:16.837Z,1.10
2022-09-22T08:10:21.103Z,1.50
2022-09-22T08:13:24.371Z,1.42
2022-09-22T08:16:29.010Z,1.70
2022-09-22T08:19:32.209Z,1.85
2022-09-22T08:22:35.100Z,1.05
2022-09-22T08:25:37.061Z,1.20
2022-09-22T08:28:38.929Z,2.15
2022-09-22T08:31:42.403Z,1.42
2022-09-22T08:34:45.383Z,1.48
2022-09-22T08:37:50.418Z,1.30
2022-09-22T08:41:05.260Z,1.40
2022-09-22T08:44:07.130Z,1.00
2022-09-22T08:47:17.574Z,1.10
2022-09-22T08:50:58.238Z,1.48
2022-09-22T08:54:07.184Z,1.90
2022-09-22T08:57:21.436Z,2.88
2022-09-22T09:00:25.493Z,0.90
2022-09-22T09:03:49.171Z,1.63
2022-09-22T09:07:25.994Z,1.42
2022-09-22T09:10:49.018Z,1.23
2022-09-22T09:14:22.254Z,1.25
2022-09-22T09:17:35.237Z,1.63
2022-09-22T09:20:44.713Z,1.42
2022-09-22T09:27:21.754Z,1.10
2022-09-22T09:33:40.220Z,1.02
2022-09-22T09:36:55.435Z,1.08
2022-09-22T09:40:02.182Z,1.60
2022-09-22T09:43:06.220Z,0.73
2022-09-22T09:46:54.590Z,0.82
2022-09-22T09:49:56.885Z,1.80
2022-09-22T09:52:59.905Z,1.77
2022-09-22T09:56:02.044Z,1.08
2022-09-22T09:59:25.351Z,1.63
2022-09-22T10:02:29.094Z,1.27
2022-09-22T10:05:33.588Z,1.48
2022-09-22T10:08:51.644Z,2.42
2022-09-22T10:12:01.562Z,2.60
2022-09-22T10:15:03.783Z,0.80
2022-09-22T10:18:24.285Z,0.90
2022-09-22T10:21:26.880Z,0.88
2022-09-22T10:24:33.148Z,0.80
2022-09-22T10:27:35.326Z,0.40
2022-09-22T10:30:37.924Z,0.70
2022-09-22T10:33:57.505Z,1.00
2022-09-22T10:37:01.188Z,1.02
2022-09-22T10:40:03.952Z,1.15
2022-09-22T10:43:13.825Z,1.35
2022-09-22T10:46:21.562Z,1.27
2022-09-22T10:49:31.420Z,1.40
2022-09-22T10:53:05.967Z,1.10
2022-09-22T10:56:09.975Z,1.73
2022-09-22T10:59:40.810Z,1.55
2022-09-22T11:02:45.547Z,1.42
2022-09-22T11:06:29.035Z,1.77
2022-09-22T11:10:01.861Z,1.58
2022-09-22T11:13:32.861Z,1.13
2022-09-22T11:16:43.675Z,1.65
2022-09-22T11:19:53.053Z,1.35
2022-09-22T11:23:07.143Z,1.17
2022-09-22T11:26:33.883Z,0.95
2022-09-22T11:29:45.428Z,1.13
2022-09-22T11:33:17.467Z,1.27
2022-09-22T11:36:25.071Z,0.80
2022-09-22T11:39:56.055Z,1.05
2022-09-22T11:43:07.106Z,0.93
2022-09-22T11:46:57.156Z,1.40
2022-09-22T11:50:10.901Z,0.98
2022-09-22T11:53:40.501Z,0.85
2022-09-22T12:00:05.826Z,1.40
2022-09-22T12:03:18.563Z,1.02
2022-09-22T12:06:26.321Z,1.33
2022-09-22T12:09:39.600Z,1.37
2022-09-22T12:12:46.666Z,1.05
2022-09-22T12:16:10.312Z,0.98
2022-09-22T12:19:21.772Z,1.30
2022-09-22T12:22:36.429Z,1.38
2022-09-22T12:25:54.556Z,1.80
2022-09-22T12:28:58.788Z,1.43
2022-09-22T12:32:01.174Z,1.23
2022-09-22T12:35:04.532Z,1.17
2022-09-22T12:38:06.542Z,1.08
2022-09-22T12:41:08.715Z,1.92
2022-09-22T12:44:15.392Z,2.10
2022-09-22T12:47:52.483Z,1.63
2022-09-22T12:51:15.824Z,1.85
2022-09-22T12:54:23.706Z,1.55
2022-09-22T12:57:27.497Z,1.27
2022-09-22T13:00:39.725Z,1.27
2022-09-22T13:03:49.156Z,1.42
2022-09-22T13:06:53.017Z,1.23
2022-09-22T13:10:23.091Z,1.42
2022-09-22T13:13:40.046Z,1.50
2022-09-22T13:16:42.179Z,1.30
2022-09-22T13:19:56.044Z,1.15
2022-09-22T13:23:05.765Z,2.03
2022-09-22T13:26:12.469Z,1.55
2022-09-22T13:29:14.390Z,1.67
2022-09-22T13:32:26.881Z,1.63
2022-09-22T13:35:36.401Z,1.65
2022-09-22T13:38:51.174Z,1.30
2022-09-22T13:41:59.346Z,1.08
2022-09-22T13:45:08.173Z,1.13
2022-09-22T13:48:15.646Z,0.85
2022-09-22T13:51:17.806Z,0.63
2022-09-22T13:54:24.880Z,0.80
2022-09-22T13:57:34.656Z,0.60
2022-09-22T14:04:50.932Z,0.93
2022-09-22T14:08:11.133Z,0.52
2022-09-22T14:11:27.502Z,0.70
2022-09-22T14:14:29.398Z,0.65
2022-09-22T14:17:31.417Z,0.75
2022-09-22T14:20:38.044Z,0.80
2022-09-22T14:23:45.882Z,0.63
2022-09-22T14:27:03.057Z,1.10
2022-09-22T14:30:14.814Z,1.03
2022-09-22T14:33:25.644Z,1.05
2022-09-22T14:36:27.910Z,0.70
2022-09-22T14:39:34.280Z,1.45
2022-09-22T14:42:37.234Z,1.10
2022-09-22T14:45:56.911Z,1.10
2022-09-22T14:48:59.059Z,1.02
2022-09-22T14:52:01.538Z,1.27
2022-09-22T14:55:20.183Z,0.98
2022-09-22T14:58:27.990Z,0.85
2022-09-22T15:01:50.936Z,0.93
2022-09-22T15:04:53.805Z,1.13
2022-09-22T15:07:56.082Z,0.95
2022-09-22T15:11:01.061Z,1.27
2022-09-22T15:14:44.236Z,1.17
2022-09-22T15:18:10.440Z,0.77
2022-09-22T15:21:14.055Z,1.20
2022-09-22T15:24:21.362Z,1.23
2022-09-22T15:27:23.351Z,1.27
2022-09-22T15:30:26.181Z,1.20
2022-09-22T15:33:28.161Z,1.33
2022-09-22T15:36:32.965Z,1.23
2022-09-22T15:39:35.518Z,2.38
2022-09-22T15:42:48.183Z,1.90
2022-09-22T15:46:04.990Z,1.55
2022-09-22T15:49:14.043Z,2.25
2022-09-22T15:52:16.123Z,1.80
2022-09-22T15:55:20.847Z,1.70
2022-09-22T15:58:23.327Z,1.70
2022-09-22T16:01:29.486Z,2.10
2022-09-22T16:04:34.291Z,2.03
2022-09-22T16:07:38.523Z,1.73
2022-09-22T16:10:42.114Z,1.80
2022-09-22T16:13:44.595Z,1.40
2022-09-22T16:16:46.525Z,2.65
2022-09-22T16:19:48.411Z,8.25
2022-09-22T16:22:50.893Z,3.88
2022-09-22T16:25:53.372Z,4.28
2022-09-22T16:28:56.269Z,3.13
2022-09-22T16:31:58.798Z,3.53
2022-09-22T16:35:00.706Z,2.95
2022-09-22T16:38:03.635Z,2.00
2022-09-22T16:41:17.145Z,1.77
2022-09-22T16:44:19.118Z,1.67
2022-09-22T16:47:22.835Z,1.50
2022-09-22T16:50:25.029Z,1.80
2022-09-22T16:53:27.151Z,1.60
2022-09-22T16:56:31.010Z,2.22
2022-09-22T16:59:33.499Z,2.17
2022-09-22T17:02:36.078Z,1.98
2022-09-22T17:05:39.571Z,1.73
2022-09-22T17:08:43.928Z,1.80
2022-09-22T17:11:49.202Z,1.77
2022-09-22T17:14:51.243Z,1.88
2022-09-22T17:17:53.248Z,1.92
2022-09-22T17:20:55.211Z,1.92
2022-09-22T17:24:03.172Z,2.60
2022-09-22T17:27:05.648Z,2.10
2022-09-22T17:30:08.248Z,2.15
2022-09-22T17:33:10.271Z,2.67
2022-09-22T17:36:20.410Z,1.70
2022-09-22T17:39:24.703Z,1.58
2022-09-22T17:42:27.386Z,1.92
2022-09-22T17:45:29.333Z,2.25
2022-09-22T17:48:49.797Z,2.05
2022-09-22T17:52:10.207Z,2.30
2022-09-22T17:55:20.618Z,2.13
2022-09-22T17:58:22.824Z,2.03
2022-09-22T18:01:24.751Z,2.47
2022-09-22T18:04:27.862Z,2.38
2022-09-22T18:07:29.862Z,2.10
2022-09-22T18:10:34.756Z,2.58
2022-09-22T18:13:40.484Z,2.75
2022-09-22T18:16:42.580Z,2.20
2022-09-22T18:19:44.886Z,1.98
2022-09-22T18:22:48.080Z,1.67
2022-09-22T18:25:51.322Z,2.70
2022-09-22T18:28:54.139Z,2.03
2022-09-22T18:31:58.988Z,2.10
2022-09-22T18:35:01.235Z,2.15
2022-09-22T18:38:04.037Z,2.50
2022-09-22T18:41:05.929Z,2.70
2022-09-22T18:44:09.242Z,2.33
2022-09-22T18:47:14.948Z,2.47
2022-09-22T18:50:16.967Z,1.92
2022-09-22T18:53:22.178Z,1.95
2022-09-22T18:56:25.589Z,2.03
2022-09-22T18:59:27.656Z,1.75
2022-09-22T19:02:30.346Z,2.00
2022-09-22T19:05:32.394Z,1.60
2022-09-22T19:08:34.341Z,1.75
2022-09-22T19:11:36.351Z,2.13
2022-09-22T19:14:39.896Z,1.48
2022-09-22T19:17:46.203Z,1.70
2022-09-22T19:20:49.037Z,1.80
2022-09-22T19:23:51.162Z,1.95
2022-09-22T19:26:55.558Z,1.55
2022-09-22T19:29:58.076Z,2.30
2022-09-22T19:33:00.381Z,2.17
2022-09-22T19:36:02.429Z,2.00
2022-09-22T19:39:08.571Z,1.73
2022-09-22T19:42:10.669Z,1.83
2022-09-22T19:45:12.819Z,2.20
2022-09-22T19:48:15.395Z,2.38
2022-09-22T19:51:17.873Z,1.92
2022-09-22T19:54:21.062Z,2.28
2022-09-22T19:57:23.096Z,2.47
2022-09-22T20:00:28.130Z,1.85
2022-09-22T20:03:30.074Z,2.30
2022-09-22T20:06:33.710Z,1.98
2022-09-22T20:09:35.736Z,2.10
2022-09-22T20:12:37.679Z,2.50
2022-09-22T20:15:39.978Z,2.30
2022-09-22T20:18:42.012Z,2.13
2022-09-22T20:21:45.650Z,2.08
2022-09-22T20:24:54.139Z,2.65
2022-09-22T20:27:56.342Z,1.55
2022-09-22T20:30:58.466Z,1.58
2022-09-22T20:34:00.485Z,1.80
2022-09-22T20:37:02.367Z,1.77
2022-09-22T20:40:07.293Z,1.95
2022-09-22T20:43:12.422Z,1.80
2022-09-22T20:46:14.597Z,1.67
2022-09-22T20:49:19.555Z,2.05
2022-09-22T20:52:21.459Z,1.60
2022-09-22T20:55:23.435Z,1.98
2022-09-22T20:58:25.401Z,1.60
2022-09-22T21:01:27.408Z,1.83
2022-09-22T21:04:30.336Z,1.73
2022-09-22T21:07:32.748Z,1.48
2022-09-22T21:10:35.561Z,1.75
2022-09-22T21:13:37.869Z,1.38
2022-09-22T21:16:40.095Z,1.52
2022-09-22T21:19:42.079Z,1.73
2022-09-22T21:22:44.483Z,1.35
2022-09-22T21:26:00.582Z,1.63
2022-09-22T21:29:02.657Z,2.05
2022-09-22T21:32:05.102Z,1.65
2022-09-22T21:35:07.708Z,1.92
2022-09-22T21:38:09.637Z,1.50
2022-09-22T21:41:17.476Z,1.65
2022-09-22T21:44:19.377Z,1.83
2022-09-22T21:47:21.382Z,1.52
2022-09-22T21:50:23.414Z,1.55
2022-09-22T21:53:26.906Z,1.65
2022-09-22T21:56:30.267Z,2.22
2022-09-22T21:59:32.173Z,1.40
2022-09-22T22:02:54.070Z,1.77
2022-09-22T22:06:28.563Z,2.08
2022-09-22T22:09:30.464Z,1.85
2022-09-22T22:12:32.510Z,1.48
2022-09-22T22:15:34.786Z,1.80
2022-09-22T22:18:37.170Z,1.58
2022-09-22T22:21:43.728Z,1.67
2022-09-22T22:24:48.418Z,2.10
2022-09-22T22:27:50.500Z,1.60
2022-09-22T22:30:52.738Z,2.03
2022-09-22T22:33:55.430Z,1.75
2022-09-22T22:37:00.645Z,1.65
2022-09-22T22:40:02.646Z,1.20
2022-09-22T22:43:04.708Z,1.88
2022-09-22T22:46:08.176Z,1.80
2022-09-22T22:49:11.631Z,1.55
2022-09-22T22:52:13.689Z,1.90
2022-09-22T22:55:15.806Z,1.35
2022-09-22T22:58:17.842Z,1.77
2022-09-22T23:01:27.676Z,1.80
2022-09-22T23:04:29.621Z,1.98
2022-09-22T23:07:31.617Z,1.92
2022-09-22T23:10:34.511Z,1.35
2022-09-22T23:13:36.879Z,1.20
2022-09-22T23:16:44.109Z,1.40
2022-09-22T23:19:45.994Z,1.67
2022-09-22T23:22:49.252Z,1.90
2022-09-22T23:25:51.798Z,1.70
2022-09-22T23:28:54.672Z,1.50
2022-09-22T23:31:56.727Z,1.38
2022-09-22T23:34:58.657Z,1.40
2022-09-22T23:38:00.828Z,1.42
2022-09-22T23:41:03.822Z,1.35
2022-09-22T23:44:06.921Z,1.23
2022-09-22T23:47:12.184Z,1.38
2022-09-22T23:50:16.225Z,1.95
2022-09-22T23:53:20.353Z,1.73
2022-09-22T23:56:22.365Z,1.75
2022-09-22T23:59:24.250Z,1.75
